Time;durP1;ratioP1;P1;durP2;ratioP2;P2;SDS_P1;SDS_P2;PMS_P1;PMS_P2;Temp;Humidity;BMP_temperature;BMP_pressure;BME280_temperature;BME280_humidity;BME280_pressure;Samples;Min_cycle;Max_cycle;Signal;HPM_P1;HPM_P2
2023/04/28 00:00:46;;;;;;;1.50;1.40;;;18.30;43.20;;;;;;5017772;28;20216;-65
2023/04/28 00:03:12;;;;;;;1.60;1.50;;;18.30;43.20;;;;;;5035667;28;20417;-61
2023/04/28 00:05:37;;;;;;;1.80;1.70;;;18.20;43.10;;;;;;5027222;28;20249;-64
2023/04/28 00:08:04;;;;;;;1.70;1.60;;;18.30;43.20;;;;;;5024411;28;20305;-63
2023/04/28 00:10:33;;;;;;;1.47;1.37;;;18.30;43.20;;;;;;5020218;28;20236;-65
2023/04/28 00:12:59;;;;;;;1.60;1.50;;;18.20;43.10;;;;;;5032068;28;20755;-65
2023/04/28 00:15:25;;;;;;;1.60;1.50;;;18.30;43.20;;;;;;5024104;28;20435;-62
2023/04/28 00:17:50;;;;;;;1.77;1.67;;;18.30;43.20;;;;;;5028205;28;20447;-62
2023/04/28 00:20:16;;;;;;;1.50;1.40;;;18.30;43.20;;;;;;5027211;28;20246;-64
2023/04/28 00:22:42;;;;;;;1.60;1.50;;;18.20;43.10;;;;;;5007968;28;20226;-65
2023/04/28 00:25:08;;;;;;;1.60;1.50;;;18.20;43.10;;;;;;5024784;28;20296;-62
2023/04/28 00:27:34;;;;;;;1.90;1.80;;;18.30;43.20;;;;;;5030265;28;20789;-61
2023/04/28 00:30:00;;;;;;;1.73;1.43;;;18.20;43.10;;;;;;5032589;28;20226;-61
2023/04/28 00:32:25;;;;;;;2.30;2.03;;;18.20;43.10;;;;;;5029860;28;20529;-64
2023/04/28 00:34:52;;;;;;;1.60;1.50;;;18.30;43.20;;;;;;5029125;28;20309;-62
2023/04/28 00:37:18;;;;;;;1.50;1.40;;;18.30;43.20;;;;;;5026403;28;20303;-62
2023/04/28 00:39:46;;;;;;;1.80;1.70;;;18.30;43.20;;;;;;5016362;28;20440;-61
2023/04/28 00:42:12;;;;;;;1.77;1.67;;;18.30;43.20;;;;;;5033874;28;20674;-61
2023/04/28 00:44:39;;;;;;;1.60;1.50;;;18.30;43.20;;;;;;5022212;28;20814;-62
2023/04/28 00:47:05;;;;;;;1.70;1.60;;;18.20;43.10;;;;;;5031786;28;20438;-61
2023/04/28 00:49:32;;;;;;;2.20;2.10;;;18.20;43.10;;;;;;5033020;28;20540;-63
2023/04/28 00:52:03;;;;;;;1.60;1.50;;;18.20;43.10;;;;;;5029679;28;20226;-62
2023/04/28 00:54:29;;;;;;;1.60;1.50;;;18.20;43.10;;;;;;5031909;28;20445;-61
2023/04/28 00:56:55;;;;;;;1.60;1.50;;;18.20;43.10;;;;;;5047010;28;20449;-67
2023/04/28 00:59:21;;;;;;;2.03;1.93;;;18.30;43.20;;;;;;5032264;28;20229;-62
2023/04/28 01:01:47;;;;;;;1.57;1.47;;;18.20;43.10;;;;;;5024203;28;20542;-64
2023/04/28 01:04:14;;;;;;;1.50;1.40;;;18.20;43.10;;;;;;5032135;28;20303;-62
2023/04/28 01:06:41;;;;;;;1.90;1.80;;;18.20;43.10;;;;;;5031716;28;20461;-64
2023/04/28 01:09:06;;;;;;;1.57;1.47;;;18.20;43.10;;;;;;5032330;28;20829;-66
2023/04/28 01:11:32;;;;;;;1.90;1.80;;;18.20;43.10;;;;;;5030377;28;20549;-65
2023/04/28 01:13:58;;;;;;;1.70;1.60;;;18.20;43.10;;;;;;5028726;28;20226;-63
2023/04/28 01:16:25;;;;;;;1.90;1.80;;;18.20;43.10;;;;;;5017033;28;20222;-68
2023/04/28 01:18:51;;;;;;;1.80;1.70;;;18.20;43.10;;;;;;5027556;28;20445;-63
2023/04/28 01:21:34;;;;;;;1.53;1.43;;;18.20;43.10;;;;;;5022612;28;20430;-61
2023/04/28 01:24:00;;;;;;;1.80;1.70;;;18.20;43.10;;;;;;5028000;28;20229;-63
2023/04/28 01:26:26;;;;;;;1.60;1.50;;;18.20;43.10;;;;;;5030098;28;20488;-63
2023/04/28 01:28:52;;;;;;;2.33;2.13;;;18.20;43.10;;;;;;5024080;28;20920;-63
2023/04/28 01:31:17;;;;;;;2.27;2.07;;;18.20;43.10;;;;;;5030503;28;20219;-63
2023/04/28 01:33:43;;;;;;;2.10;2.00;;;18.20;43.10;;;;;;5033056;28;20434;-63
2023/04/28 01:36:08;;;;;;;1.70;1.60;;;18.20;43.10;;;;;;5031312;28;20230;-63
2023/04/28 01:38:34;;;;;;;1.97;1.87;;;18.20;43.10;;;;;;5028408;28;20225;-61
2023/04/28 01:41:01;;;;;;;1.87;1.77;;;18.20;43.10;;;;;;5031819;28;20320;-65
2023/04/28 01:43:27;;;;;;;1.50;1.40;;;18.20;43.10;;;;;;5031876;28;20245;-63
2023/04/28 01:45:52;;;;;;;1.63;1.53;;;18.20;43.10;;;;;;5023220;28;20498;-61
2023/04/28 01:48:18;;;;;;;1.80;1.70;;;18.20;43.10;;;;;;5018275;28;20330;-63
2023/04/28 01:50:43;;;;;;;1.83;1.73;;;18.20;43.20;;;;;;5020890;28;20216;-62
2023/04/28 01:53:09;;;;;;;1.80;1.70;;;18.20;43.10;;;;;;5018113;28;20265;-62
2023/04/28 01:55:34;;;;;;;1.50;1.40;;;18.20;43.20;;;;;;5030676;28;20645;-61
2023/04/28 01:58:00;;;;;;;1.63;1.53;;;18.20;43.20;;;;;;5030415;28;20222;-63
2023/04/28 02:00:26;;;;;;;2.00;1.90;;;18.20;43.20;;;;;;5028984;28;20222;-64
2023/04/28 02:02:51;;;;;;;1.80;1.70;;;18.20;43.20;;;;;;5028574;28;20227;-63
2023/04/28 02:05:17;;;;;;;1.50;1.40;;;18.20;43.20;;;;;;5032455;28;20230;-62
2023/04/28 02:07:42;;;;;;;2.00;1.90;;;18.20;43.20;;;;;;5029529;28;20224;-61
2023/04/28 02:10:08;;;;;;;1.90;1.80;;;18.20;43.20;;;;;;5030321;28;20226;-62
2023/04/28 02:12:34;;;;;;;1.60;1.50;;;18.20;44.00;;;;;;5026390;28;20679;-62
2023/04/28 02:14:59;;;;;;;1.60;1.50;;;18.20;43.30;;;;;;5027554;28;20244;-61
2023/04/28 02:17:25;;;;;;;1.40;1.30;;;18.20;43.30;;;;;;5026493;28;20234;-62
2023/04/28 02:19:57;;;;;;;1.97;1.87;;;18.20;43.40;;;;;;5015339;28;20590;-62
2023/04/28 02:22:23;;;;;;;2.23;2.03;;;18.20;43.30;;;;;;5015572;28;20261;-62
2023/04/28 02:24:48;;;;;;;2.03;1.93;;;18.20;43.40;;;;;;5027626;28;20435;-63
2023/04/28 02:27:14;;;;;;;1.70;1.60;;;18.20;43.30;;;;;;5034091;28;20802;-60
2023/04/28 02:29:40;;;;;;;1.60;1.50;;;18.20;43.40;;;;;;5030527;28;20589;-64
2023/04/28 02:32:06;;;;;;;1.80;1.70;;;18.20;43.40;;;;;;5029689;28;20236;-61
2023/04/28 02:34:32;;;;;;;1.57;1.47;;;18.20;43.40;;;;;;5031462;28;20445;-61
2023/04/28 02:36:57;;;;;;;1.80;1.70;;;18.20;43.40;;;;;;5020619;28;20316;-62
2023/04/28 02:39:25;;;;;;;1.70;1.60;;;18.20;43.40;;;;;;5048792;28;20309;-61
2023/04/28 02:41:54;;;;;;;1.50;1.40;;;18.20;43.50;;;;;;5030099;28;20239;-64
2023/04/28 02:44:20;;;;;;;1.80;1.70;;;18.20;43.40;;;;;;5030847;28;20431;-62
2023/04/28 02:46:46;;;;;;;1.70;1.60;;;18.20;43.40;;;;;;5026315;28;20463;-64
2023/04/28 02:49:11;;;;;;;1.60;1.50;;;18.20;43.50;;;;;;5030266;28;20226;-61
2023/04/28 02:51:37;;;;;;;2.73;1.80;;;18.20;43.50;;;;;;5033434;28;20305;-63
2023/04/28 02:54:03;;;;;;;1.50;1.40;;;18.20;43.50;;;;;;5030128;28;20961;-64
2023/04/28 02:56:29;;;;;;;1.70;1.60;;;18.20;43.60;;;;;;5020831;28;20320;-62
2023/04/28 02:58:55;;;;;;;1.60;1.50;;;18.20;43.60;;;;;;5031918;28;20470;-62
2023/04/28 03:01:20;;;;;;;1.77;1.67;;;18.20;43.50;;;;;;5027924;28;20425;-64
2023/04/28 03:03:46;;;;;;;1.93;1.83;;;18.20;43.60;;;;;;5028809;28;20245;-62
2023/04/28 03:06:11;;;;;;;1.70;1.60;;;18.20;43.60;;;;;;5031380;28;20229;-61
2023/04/28 03:08:37;;;;;;;1.77;1.60;;;18.20;43.60;;;;;;5018600;28;20229;-61
2023/04/28 03:11:02;;;;;;;1.40;1.30;;;18.20;43.60;;;;;;5018247;28;20244;-61
2023/04/28 03:13:28;;;;;;;1.70;1.60;;;18.20;43.60;;;;;;5037100;28;20218;-63
2023/04/28 03:15:54;;;;;;;2.03;1.83;;;18.20;43.60;;;;;;5031703;28;20226;-63
2023/04/28 03:18:21;;;;;;;1.70;1.60;;;18.20;43.60;;;;;;5028327;28;20455;-62
2023/04/28 03:20:47;;;;;;;1.70;1.60;;;18.20;44.40;;;;;;5023244;28;20464;-62
2023/04/28 03:23:12;;;;;;;1.50;1.40;;;18.20;43.60;;;;;;5019080;28;20524;-63
2023/04/28 03:25:38;;;;;;;1.87;1.77;;;18.20;43.60;;;;;;5030101;28;20223;-63
2023/04/28 03:28:04;;;;;;;1.67;1.57;;;18.20;43.70;;;;;;5032976;28;20218;-62
2023/04/28 03:30:30;;;;;;;1.90;1.80;;;18.20;43.60;;;;;;5026137;28;20218;-64
2023/04/28 03:32:55;;;;;;;2.13;2.03;;;18.20;43.70;;;;;;5031559;28;20829;-63
2023/04/28 03:35:21;;;;;;;1.70;1.60;;;18.20;43.70;;;;;;5020274;28;20240;-61
2023/04/28 03:37:47;;;;;;;1.83;1.70;;;18.20;43.70;;;;;;5028302;28;21449;-67
2023/04/28 03:40:12;;;;;;;1.90;1.80;;;18.20;43.70;;;;;;5033190;28;20708;-63
2023/04/28 03:42:38;;;;;;;1.60;1.50;;;18.20;43.70;;;;;;5024901;28;20860;-61
2023/04/28 03:45:04;;;;;;;1.80;1.70;;;18.20;43.70;;;;;;5023600;28;20222;-67
2023/04/28 03:47:29;;;;;;;1.70;1.60;;;18.20;43.70;;;;;;5028243;28;20230;-61
2023/04/28 03:49:57;;;;;;;2.00;1.90;;;18.20;43.70;;;;;;5033553;28;20242;-62
2023/04/28 03:52:23;;;;;;;1.70;1.60;;;18.20;43.70;;;;;;5025394;28;20235;-63
2023/04/28 03:54:48;;;;;;;1.70;1.60;;;18.20;43.70;;;;;;5031704;28;20503;-62
2023/04/28 03:57:14;;;;;;;1.80;1.70;;;18.20;43.70;;;;;;5019567;28;20285;-61
2023/04/28 03:59:39;;;;;;;1.63;1.53;;;18.20;43.70;;;;;;5025640;28;20233;-61
2023/04/28 04:02:05;;;;;;;2.03;1.80;;;18.20;43.70;;;;;;5033082;28;20697;-61
2023/04/28 04:04:30;;;;;;;1.70;1.60;;;18.20;43.80;;;;;;5033001;28;20228;-64
2023/04/28 04:06:56;;;;;;;1.90;1.80;;;18.20;43.80;;;;;;5027189;28;20218;-62
2023/04/28 04:09:22;;;;;;;1.60;1.50;;;18.20;43.70;;;;;;5027977;28;20243;-65
2023/04/28 04:11:47;;;;;;;1.90;1.80;;;18.20;43.70;;;;;;5035698;28;20256;-66
2023/04/28 04:14:13;;;;;;;1.90;1.80;;;18.20;43.80;;;;;;5032307;28;20970;-62
2023/04/28 04:16:38;;;;;;;2.10;2.00;;;18.20;43.80;;;;;;5032415;28;20249;-64
2023/04/28 04:19:04;;;;;;;2.20;2.10;;;18.20;43.80;;;;;;5026550;28;20340;-68
2023/04/28 04:21:30;;;;;;;1.90;1.80;;;18.20;43.80;;;;;;5023705;28;20297;-63
2023/04/28 04:23:56;;;;;;;1.80;1.70;;;18.20;43.80;;;;;;5032178;28;21110;-62
2023/04/28 04:26:21;;;;;;;1.70;1.60;;;18.20;43.80;;;;;;5024434;28;20439;-60
2023/04/28 04:28:47;;;;;;;1.90;1.80;;;18.20;43.80;;;;;;5034791;28;20222;-64
2023/04/28 04:31:12;;;;;;;2.00;1.90;;;18.20;43.80;;;;;;5024835;28;20309;-61
2023/04/28 04:33:38;;;;;;;1.70;1.60;;;18.20;43.80;;;;;;5033011;28;20225;-61
2023/04/28 04:36:04;;;;;;;2.03;1.93;;;18.20;43.80;;;;;;5032790;28;20231;-63
2023/04/28 04:38:30;;;;;;;1.70;1.60;;;18.20;44.00;;;;;;5020961;28;20702;-61
2023/04/28 04:40:55;;;;;;;1.77;1.67;;;18.20;44.00;;;;;;5032215;28;20553;-61
2023/04/28 04:43:21;;;;;;;1.83;1.73;;;18.20;43.80;;;;;;5021350;28;20227;-64
2023/04/28 04:45:47;;;;;;;1.93;1.83;;;18.20;43.80;;;;;;5031881;28;20229;-64
2023/04/28 04:48:12;;;;;;;2.00;1.90;;;18.20;43.80;;;;;;5033262;28;20300;-62
2023/04/28 04:50:39;;;;;;;1.70;1.60;;;18.20;43.80;;;;;;5032201;28;20238;-64
2023/04/28 04:53:05;;;;;;;1.80;1.70;;;18.20;43.80;;;;;;5028874;28;20719;-67
2023/04/28 04:55:30;;;;;;;2.30;2.20;;;18.20;43.80;;;;;;5027446;28;20471;-67
2023/04/28 04:57:56;;;;;;;1.80;1.70;;;18.30;43.90;;;;;;5030916;28;20218;-64
2023/04/28 05:00:22;;;;;;;2.07;1.97;;;18.30;43.80;;;;;;5027374;28;20226;-66
2023/04/28 05:02:47;;;;;;;1.93;1.83;;;18.20;43.80;;;;;;5017535;28;20228;-61
2023/04/28 05:05:13;;;;;;;2.00;1.90;;;18.20;43.70;;;;;;5033022;28;20225;-61
2023/04/28 05:07:38;;;;;;;2.20;2.00;;;18.30;44.60;;;;;;5013628;28;20226;-65
2023/04/28 05:10:06;;;;;;;2.00;1.90;;;18.20;43.80;;;;;;5018742;28;20332;-62
2023/04/28 05:12:31;;;;;;;2.17;1.97;;;18.30;43.80;;;;;;5016270;28;20230;-62
2023/04/28 05:14:57;;;;;;;1.90;1.80;;;18.30;43.80;;;;;;5026838;28;20441;-61
2023/04/28 05:17:22;;;;;;;2.00;1.80;;;18.30;43.80;;;;;;5028872;28;20275;-61
2023/04/28 05:19:48;;;;;;;1.83;1.73;;;18.30;43.80;;;;;;5026929;28;20230;-68
2023/04/28 05:22:13;;;;;;;1.77;1.67;;;18.30;43.80;;;;;;5023289;28;20215;-66
2023/04/28 05:24:39;;;;;;;2.00;1.90;;;18.30;43.80;;;;;;5013570;28;20683;-64
2023/04/28 05:27:04;;;;;;;2.60;2.40;;;18.30;43.80;;;;;;5013451;28;20268;-67
2023/04/28 05:29:30;;;;;;;2.07;1.97;;;18.30;43.80;;;;;;5001043;28;20225;-65
2023/04/28 05:31:55;;;;;;;1.90;1.80;;;18.30;43.80;;;;;;5023035;28;20234;-64
2023/04/28 05:34:21;;;;;;;1.97;1.87;;;18.30;43.80;;;;;;5017544;28;20233;-63
2023/04/28 05:36:46;;;;;;;2.00;1.80;;;18.30;43.80;;;;;;5018177;28;20245;-63
2023/04/28 05:39:12;;;;;;;4.23;2.40;;;18.30;43.70;;;;;;5018584;28;20233;-63
2023/04/28 05:41:38;;;;;;;2.27;2.13;;;18.30;43.80;;;;;;5026007;28;20866;-62
2023/04/28 05:44:04;;;;;;;2.17;1.97;;;18.30;43.70;;;;;;5025284;28;20223;-65
2023/04/28 05:46:30;;;;;;;1.70;1.60;;;18.30;43.70;;;;;;5024474;28;20386;-63
2023/04/28 05:48:56;;;;;;;2.87;1.67;;;18.30;43.70;;;;;;5012064;28;21067;-61
2023/04/28 05:51:22;;;;;;;2.30;1.70;;;18.30;43.70;;;;;;5013186;28;20470;-62
2023/04/28 05:53:47;;;;;;;2.33;1.87;;;18.30;43.70;;;;;;5016651;28;20597;-62
2023/04/28 05:56:15;;;;;;;2.97;1.70;;;18.30;43.70;;;;;;5025200;28;20975;-62
2023/04/28 05:58:40;;;;;;;2.07;1.87;;;18.30;43.80;;;;;;5028300;28;20341;-62
2023/04/28 06:01:06;;;;;;;2.20;2.10;;;18.30;43.70;;;;;;5008382;28;20462;-61
2023/04/28 06:03:31;;;;;;;2.03;1.83;;;18.30;43.70;;;;;;5019807;28;20259;-62
2023/04/28 06:05:57;;;;;;;2.13;1.83;;;18.30;43.70;;;;;;5026289;28;20234;-62
2023/04/28 06:08:23;;;;;;;2.13;1.93;;;18.30;43.80;;;;;;5012319;28;20232;-64
2023/04/28 06:10:48;;;;;;;1.73;1.63;;;18.30;43.70;;;;;;5022848;28;20267;-62
2023/04/28 06:13:14;;;;;;;1.80;1.70;;;18.30;43.70;;;;;;5018280;28;20222;-63
2023/04/28 06:15:39;;;;;;;1.80;1.70;;;18.30;43.70;;;;;;5023507;28;20221;-63
2023/04/28 06:18:06;;;;;;;2.60;2.10;;;18.30;43.70;;;;;;5007976;28;20226;-61
2023/04/28 06:20:31;;;;;;;2.23;1.70;;;18.30;43.70;;;;;;5020056;28;20219;-64
2023/04/28 06:22:57;;;;;;;1.70;1.60;;;18.30;43.80;;;;;;5010184;28;20451;-63
2023/04/28 06:25:23;;;;;;;2.90;2.70;;;18.30;43.80;;;;;;5009005;28;20233;-62
2023/04/28 06:27:48;;;;;;;2.93;2.03;;;18.30;43.80;;;;;;5020956;28;20230;-63
2023/04/28 06:30:19;;;;;;;3.53;2.73;;;18.30;43.80;;;;;;5022240;28;20686;-65
2023/04/28 06:32:44;;;;;;;2.67;1.87;;;18.30;43.80;;;;;;5010660;28;20222;-63
2023/04/28 06:35:10;;;;;;;1.70;1.60;;;18.30;43.70;;;;;;5012700;28;20464;-62
2023/04/28 06:37:35;;;;;;;2.70;2.07;;;18.30;43.80;;;;;;5013783;28;20281;-61
2023/04/28 06:40:01;;;;;;;1.70;1.60;;;18.30;43.80;;;;;;5017467;28;20230;-66
2023/04/28 06:42:26;;;;;;;3.30;1.80;;;18.30;43.80;;;;;;5019731;28;20229;-61
2023/04/28 06:44:52;;;;;;;2.40;2.20;;;18.30;43.80;;;;;;5012025;28;20231;-67
2023/04/28 06:47:17;;;;;;;2.13;2.03;;;18.30;43.80;;;;;;5020035;28;20624;-65
2023/04/28 06:49:44;;;;;;;2.27;2.07;;;18.30;43.80;;;;;;5021196;28;20321;-62
2023/04/28 06:52:10;;;;;;;2.10;2.00;;;18.30;43.90;;;;;;5022745;28;20214;-62
2023/04/28 06:54:37;;;;;;;2.03;1.60;;;18.30;43.80;;;;;;5033031;28;20453;-61
2023/04/28 06:57:02;;;;;;;7.00;2.70;;;18.30;43.80;;;;;;5029448;28;20234;-65
2023/04/28 06:59:28;;;;;;;2.10;1.63;;;18.30;43.80;;;;;;5031192;28;20465;-61
2023/04/28 07:01:53;;;;;;;2.10;1.90;;;18.30;43.80;;;;;;5030857;28;20256;-63
2023/04/28 07:04:19;;;;;;;3.60;1.87;;;18.30;43.80;;;;;;5031985;28;20222;-65
2023/04/28 07:06:44;;;;;;;2.60;1.80;;;18.30;43.80;;;;;;5028937;28;20217;-63
2023/04/28 07:09:10;;;;;;;2.17;2.07;;;18.30;43.80;;;;;;5025917;28;20231;-66
2023/04/28 07:11:35;;;;;;;2.00;1.90;;;18.30;43.80;;;;;;5012224;28;20773;-63
2023/04/28 07:14:01;;;;;;;2.80;2.60;;;18.30;43.80;;;;;;5016882;28;20225;-64
2023/04/28 07:16:27;;;;;;;1.90;1.80;;;18.30;43.80;;;;;;5018973;28;20302;-62
2023/04/28 07:18:52;;;;;;;1.73;1.63;;;18.40;43.90;;;;;;5008137;28;20305;-63
2023/04/28 07:21:18;;;;;;;1.77;1.60;;;18.40;43.90;;;;;;5021514;28;20218;-65
2023/04/28 07:23:44;;;;;;;4.07;2.00;;;18.40;43.90;;;;;;5012513;28;20755;-66
2023/04/28 07:26:10;;;;;;;2.03;1.83;;;18.30;43.80;;;;;;5018106;28;20422;-62
2023/04/28 07:28:35;;;;;;;5.53;1.90;;;18.30;43.80;;;;;;5027257;28;20492;-64
2023/04/28 07:31:01;;;;;;;2.10;2.00;;;18.30;43.80;;;;;;5020325;28;20225;-62
2023/04/28 07:33:27;;;;;;;1.97;1.87;;;18.40;43.90;;;;;;5028794;28;20230;-65
2023/04/28 07:35:53;;;;;;;1.90;1.80;;;18.40;43.80;;;;;;5029899;28;20230;-61
2023/04/28 07:38:19;;;;;;;5.63;2.47;;;18.30;43.80;;;;;;5031129;28;20225;-64
2023/04/28 07:40:45;;;;;;;2.00;1.90;;;18.40;43.90;;;;;;5033233;28;20219;-63
2023/04/28 07:43:11;;;;;;;1.70;1.60;;;18.30;43.80;;;;;;5029870;28;20430;-62
2023/04/28 07:45:39;;;;;;;1.70;1.60;;;18.40;43.90;;;;;;5015620;28;20456;-65
2023/04/28 07:48:05;;;;;;;1.97;1.87;;;18.40;43.90;;;;;;5022045;28;20222;-63
2023/04/28 07:50:31;;;;;;;1.90;1.80;;;18.30;43.80;;;;;;5021340;28;20472;-63
2023/04/28 07:52:57;;;;;;;2.20;2.00;;;18.40;43.90;;;;;;5019064;28;20238;-62
2023/04/28 07:55:23;;;;;;;2.27;2.17;;;18.40;44.00;;;;;;5012670;28;20421;-61
2023/04/28 07:57:49;;;;;;;2.07;1.97;;;18.30;43.80;;;;;;5024757;28;20461;-64
2023/04/28 08:00:15;;;;;;;2.03;1.90;;;18.40;43.90;;;;;;5021735;28;20435;-62
2023/04/28 08:02:40;;;;;;;1.60;1.50;;;18.40;43.90;;;;;;5020212;28;20602;-64
2023/04/28 08:05:07;;;;;;;1.90;1.70;;;18.30;43.80;;;;;;5021707;28;24041;-65
2023/04/28 08:07:33;;;;;;;1.83;1.73;;;18.30;43.80;;;;;;5010464;28;20632;-65
2023/04/28 08:10:00;;;;;;;2.37;1.80;;;18.40;44.00;;;;;;5015636;28;20453;-65
2023/04/28 08:12:25;;;;;;;2.47;1.97;;;18.30;43.80;;;;;;5014625;28;20487;-65
2023/04/28 08:14:51;;;;;;;2.13;2.03;;;18.40;43.90;;;;;;5022545;28;20446;-66
2023/04/28 08:17:17;;;;;;;2.30;2.10;;;18.40;43.90;;;;;;5010343;28;20278;-64
2023/04/28 08:19:45;;;;;;;1.90;1.80;;;18.40;43.90;;;;;;5010466;28;20254;-66
2023/04/28 08:22:11;;;;;;;1.60;1.50;;;18.40;44.00;;;;;;5012819;28;20305;-66
2023/04/28 08:24:36;;;;;;;1.80;1.70;;;18.40;44.00;;;;;;5010072;28;20459;-61
2023/04/28 08:27:02;;;;;;;2.40;2.20;;;18.40;43.90;;;;;;5020519;28;20979;-65
2023/04/28 08:29:31;;;;;;;3.57;1.90;;;18.40;43.90;;;;;;5006764;28;20364;-64
2023/04/28 08:31:57;;;;;;;2.00;1.90;;;18.40;43.90;;;;;;5023320;28;20467;-63
2023/04/28 08:34:23;;;;;;;1.80;1.50;;;18.40;43.90;;;;;;5017758;28;21090;-64
2023/04/28 08:36:50;;;;;;;1.90;1.80;;;18.30;43.90;;;;;;5032294;28;20704;-63
2023/04/28 08:39:15;;;;;;;1.63;1.53;;;18.40;43.90;;;;;;5014856;28;20334;-61
2023/04/28 08:41:41;;;;;;;1.63;1.53;;;18.40;44.00;;;;;;5031423;28;20426;-60
2023/04/28 08:44:10;;;;;;;2.07;1.97;;;18.40;44.00;;;;;;5010803;28;20222;-64
2023/04/28 08:46:43;;;;;;;2.10;1.90;;;18.40;44.00;;;;;;5027682;28;20226;-61
2023/04/28 08:49:16;;;;;;;1.70;1.60;;;18.40;44.00;;;;;;5028894;28;20564;-63
2023/04/28 08:51:59;;;;;;;1.63;1.53;;;18.40;44.00;;;;;;5016574;28;20970;-64
2023/04/28 08:54:31;;;;;;;1.80;1.70;;;18.40;44.00;;;;;;5025439;28;21149;-61
2023/04/28 08:56:57;;;;;;;2.27;2.07;;;18.40;44.00;;;;;;5006864;28;20454;-59
2023/04/28 08:59:23;;;;;;;1.80;1.70;;;18.40;44.00;;;;;;5022126;28;20458;-60
2023/04/28 09:01:49;;;;;;;1.90;1.80;;;18.30;43.90;;;;;;5020463;28;20803;-63
2023/04/28 09:04:19;;;;;;;2.43;1.53;;;18.40;44.00;;;;;;5013206;28;20551;-60
2023/04/28 09:06:45;;;;;;;1.73;1.63;;;18.30;43.90;;;;;;5011758;28;20477;-59
2023/04/28 09:09:25;;;;;;;1.67;1.57;;;18.40;44.10;;;;;;5015542;28;20457;-61
2023/04/28 09:11:52;;;;;;;2.03;1.93;;;18.30;43.90;;;;;;5019828;28;20238;-61
2023/04/28 09:14:18;;;;;;;1.90;1.80;;;18.40;44.10;;;;;;5013716;28;21182;-62
2023/04/28 09:16:44;;;;;;;1.60;1.50;;;18.40;44.00;;;;;;5013347;28;20524;-62
2023/04/28 09:19:09;;;;;;;2.20;2.10;;;18.40;44.00;;;;;;5011292;28;20231;-60
2023/04/28 09:21:54;;;;;;;1.70;1.60;;;18.40;44.10;;;;;;5012838;28;20248;-61
2023/04/28 09:24:28;;;;;;;2.17;1.97;;;18.40;44.00;;;;;;5012736;28;20222;-60
2023/04/28 09:26:54;;;;;;;2.10;1.90;;;18.40;44.00;;;;;;5019878;28;20453;-61
2023/04/28 09:29:19;;;;;;;2.03;1.87;;;18.40;44.00;;;;;;5006695;28;20525;-61
2023/04/28 09:31:45;;;;;;;2.17;1.60;;;18.40;44.20;;;;;;5010986;28;20230;-61
2023/04/28 09:34:11;;;;;;;1.90;1.80;;;18.40;44.10;;;;;;4999177;28;20300;-61
2023/04/28 09:36:36;;;;;;;1.63;1.53;;;18.40;44.10;;;;;;5019080;28;20218;-60
2023/04/28 09:39:02;;;;;;;1.80;1.70;;;18.40;44.10;;;;;;5006402;28;20456;-60
2023/04/28 09:41:41;;;;;;;1.97;1.87;;;18.40;44.10;;;;;;5010909;28;20218;-64
2023/04/28 09:44:16;;;;;;;3.87;1.60;;;18.40;44.10;;;;;;5016621;28;22116;-61
2023/04/28 09:46:43;;;;;;;1.87;1.77;;;18.40;44.10;;;;;;5016674;28;20576;-63
2023/04/28 09:49:09;;;;;;;2.43;2.33;;;18.40;44.10;;;;;;5015357;28;20783;-61
2023/04/28 09:51:35;;;;;;;1.77;1.67;;;18.40;44.10;;;;;;5025594;28;21680;-62
2023/04/28 09:54:01;;;;;;;1.60;1.50;;;18.40;44.10;;;;;;5030861;28;20285;-60
2023/04/28 09:56:31;;;;;;;2.03;1.83;;;18.40;44.10;;;;;;5031069;28;20234;-63
2023/04/28 09:58:59;;;;;;;3.60;2.00;;;18.30;44.00;;;;;;5012667;28;20509;-64
2023/04/28 10:01:39;;;;;;;1.90;1.80;;;18.40;44.10;;;;;;5019052;28;20479;-62
2023/04/28 10:04:06;;;;;;;1.60;1.50;;;18.40;44.10;;;;;;5027465;28;20440;-62
2023/04/28 10:06:36;;;;;;;1.70;1.60;;;18.40;44.20;;;;;;5019333;28;20446;-60
2023/04/28 10:09:03;;;;;;;2.80;2.10;;;18.40;44.20;;;;;;5011869;28;21041;-60
2023/04/28 10:11:29;;;;;;;1.77;1.67;;;18.40;44.20;;;;;;5017322;28;20433;-63
2023/04/28 10:13:55;;;;;;;2.63;1.80;;;18.30;44.10;;;;;;5025572;28;21163;-65
2023/04/28 10:16:22;;;;;;;1.90;1.80;;;18.40;44.20;;;;;;5021548;28;20350;-62
2023/04/28 10:18:48;;;;;;;1.70;1.60;;;18.40;44.10;;;;;;5003502;28;20236;-63
2023/04/28 10:21:17;;;;;;;1.90;1.80;;;18.40;44.20;;;;;;5007617;28;20441;-63
2023/04/28 10:23:58;;;;;;;3.83;2.03;;;18.40;44.20;;;;;;5017181;28;20433;-62
2023/04/28 10:26:54;;;;;;;1.60;1.50;;;18.30;44.10;;;;;;5024830;28;20465;-66
2023/04/28 10:29:24;;;;;;;1.60;1.50;;;18.40;44.20;;;;;;4996949;28;20426;-62
2023/04/28 10:32:14;;;;;;;1.60;1.50;;;18.40;44.20;;;;;;5002814;28;20443;-66
2023/04/28 10:34:39;;;;;;;1.80;1.70;;;18.40;44.20;;;;;;4996837;28;20431;-63
2023/04/28 10:37:05;;;;;;;2.07;1.87;;;18.30;44.20;;;;;;5006134;28;20439;-64
2023/04/28 10:39:30;;;;;;;1.97;1.87;;;18.30;44.20;;;;;;5004785;28;20229;-62
2023/04/28 10:41:56;;;;;;;3.10;1.70;;;18.30;44.10;;;;;;5005364;28;20219;-62
2023/04/28 10:44:27;;;;;;;1.60;1.50;;;18.40;44.30;;;;;;5013191;28;20231;-61
2023/04/28 10:47:06;;;;;;;1.70;1.60;;;18.40;44.30;;;;;;5020649;28;20337;-64
2023/04/28 10:49:56;;;;;;;1.43;1.33;;;18.30;44.20;;;;;;5016541;28;20562;-61
2023/04/28 10:52:40;;;;;;;2.50;1.63;;;18.30;44.30;;;;;;5019275;28;20645;-62
2023/04/28 10:55:36;;;;;;;1.60;1.50;;;18.30;44.20;;;;;;5014816;28;20490;-62
2023/04/28 10:58:26;;;;;;;1.83;1.73;;;18.30;44.20;;;;;;5024715;28;20442;-62
2023/04/28 11:00:52;;;;;;;1.90;1.80;;;18.30;44.20;;;;;;5016227;28;20459;-62
2023/04/28 11:03:45;;;;;;;1.90;1.80;;;18.30;44.20;;;;;;5006978;28;20462;-66
2023/04/28 11:06:34;;;;;;;1.80;1.70;;;18.30;44.20;;;;;;5011756;28;20243;-66
2023/04/28 11:09:16;;;;;;;1.60;1.50;;;18.30;44.30;;;;;;5016102;28;20474;-62
2023/04/28 11:12:09;;;;;;;1.50;1.40;;;18.30;44.30;;;;;;5003689;28;20439;-63
2023/04/28 11:14:36;;;;;;;1.87;1.77;;;18.30;44.20;;;;;;5009967;28;20527;-62
2023/04/28 11:17:07;;;;;;;1.90;1.77;;;18.30;44.20;;;;;;5012744;28;20537;-64
2023/04/28 11:19:33;;;;;;;1.67;1.57;;;18.30;45.10;;;;;;5007231;28;20470;-62
2023/04/28 11:22:25;;;;;;;1.80;1.70;;;18.30;44.30;;;;;;5003241;28;21014;-64
2023/04/28 11:24:58;;;;;;;1.90;1.80;;;18.30;44.30;;;;;;5002998;28;20455;-63
2023/04/28 11:27:29;;;;;;;1.53;1.43;;;18.30;44.30;;;;;;5009525;28;20534;-61
2023/04/28 11:29:54;;;;;;;1.67;1.57;;;18.30;44.30;;;;;;5023537;28;20430;-64
2023/04/28 11:32:27;;;;;;;1.60;1.50;;;18.30;44.30;;;;;;5010288;28;20460;-65
2023/04/28 11:34:52;;;;;;;1.60;1.50;;;18.30;45.10;;;;;;5025709;28;20765;-64
2023/04/28 11:37:20;;;;;;;4.90;1.60;;;18.30;44.30;;;;;;5028566;28;20477;-63
2023/04/28 11:39:45;;;;;;;1.60;1.50;;;18.30;44.30;;;;;;5035287;28;20218;-63
2023/04/28 11:42:11;;;;;;;1.70;1.60;;;18.30;44.30;;;;;;5030912;28;20492;-65
2023/04/28 11:44:37;;;;;;;1.67;1.57;;;18.30;44.30;;;;;;5026314;28;20222;-62
2023/04/28 11:47:04;;;;;;;2.13;2.03;;;18.30;44.30;;;;;;5014549;28;20671;-65
2023/04/28 11:49:50;;;;;;;2.53;1.80;;;18.30;44.30;;;;;;5023309;28;20773;-66
2023/04/28 11:52:16;;;;;;;5.03;2.33;;;18.30;45.10;;;;;;5021940;28;20576;-66
2023/04/28 11:54:42;;;;;;;5.77;1.43;;;18.30;44.40;;;;;;5019971;28;20441;-67
2023/04/28 11:57:20;;;;;;;1.90;1.80;;;18.40;44.60;;;;;;5011337;28;20589;-64
2023/04/28 11:59:46;;;;;;;1.67;1.57;;;18.30;44.30;;;;;;5024186;28;20313;-65
2023/04/28 12:02:11;;;;;;;1.57;1.47;;;18.30;44.40;;;;;;5017004;28;20476;-66
2023/04/28 12:04:40;;;;;;;1.80;1.70;;;18.30;44.40;;;;;;5019433;28;20545;-65
2023/04/28 12:07:18;;;;;;;2.10;1.70;;;18.30;44.40;;;;;;5025225;28;20236;-64
2023/04/28 12:09:47;;;;;;;1.53;1.43;;;18.30;44.50;;;;;;5017345;28;20987;-66
2023/04/28 12:12:17;;;;;;;3.30;1.50;;;18.30;44.50;;;;;;5011667;28;21003;-61
2023/04/28 12:15:05;;;;;;;1.50;1.40;;;18.30;44.40;;;;;;5015279;28;20625;-66
2023/04/28 12:17:38;;;;;;;2.03;1.53;;;18.40;44.50;;;;;;5014119;28;20487;-61
2023/04/28 12:20:06;;;;;;;1.40;1.30;;;18.30;44.50;;;;;;5020432;28;20466;-62
2023/04/28 12:22:49;;;;;;;1.43;1.33;;;18.30;44.50;;;;;;5025231;28;20728;-61
2023/04/28 12:25:16;;;;;;;2.00;1.90;;;18.30;44.50;;;;;;5020380;28;21950;-67
2023/04/28 12:28:02;;;;;;;1.77;1.67;;;18.30;44.50;;;;;;5015561;28;20428;-63
2023/04/28 12:30:30;;;;;;;1.50;1.40;;;18.30;44.50;;;;;;5014403;28;20464;-62
2023/04/28 12:32:56;;;;;;;1.47;1.37;;;18.40;44.60;;;;;;5000611;28;20463;-65
2023/04/28 12:35:23;;;;;;;1.50;1.40;;;18.40;44.60;;;;;;5009465;28;20598;-66
2023/04/28 12:37:49;;;;;;;1.77;1.67;;;18.30;44.60;;;;;;5019632;28;20479;-66
2023/04/28 12:40:14;;;;;;;1.50;1.40;;;18.40;44.60;;;;;;5019954;28;20426;-63
2023/04/28 12:42:40;;;;;;;1.50;1.40;;;18.40;44.70;;;;;;5013873;28;20226;-66
2023/04/28 12:45:06;;;;;;;1.50;1.40;;;18.40;44.60;;;;;;5023243;28;20218;-63
2023/04/28 12:47:32;;;;;;;1.50;1.40;;;18.40;44.70;;;;;;5028555;28;20241;-62
2023/04/28 12:49:57;;;;;;;3.03;1.70;;;18.40;44.70;;;;;;5029168;28;20856;-63